sensor_id;sensor_type;location;lat;lon;timestamp;pressure;altitude;pressure_sealevel;temperature;humidity
4836;BME280;66719;51.226;6.902;2023-01-27T00:00:51;101463.31;;;2.52;100.00
4836;BME280;66719;51.226;6.902;2023-01-27T00:03:19;101466.00;;;2.57;100.00
4836;BME280;66719;51.226;6.902;2023-01-27T00:05:46;101467.66;;;2.53;100.00
4836;BME280;66719;51.226;6.902;2023-01-27T00:08:13;101464.28;;;2.56;100.00
4836;BME280;66719;51.226;6.902;2023-01-27T00:10:42;101466.00;;;2.57;100.00
4836;BME280;66719;51.226;6.902;2023-01-27T00:13:13;101465.97;;;2.55;100.00
4836;BME280;66719;51.226;6.902;2023-01-27T00:15:57;101465.06;;;2.53;100.00
4836;BME280;66719;51.226;6.902;2023-01-27T00:18:23;101469.47;;;2.58;100.00
4836;BME280;66719;51.226;6.902;2023-01-27T00:20:51;101463.47;;;2.59;100.00
4836;BME280;66719;51.226;6.902;2023-01-27T00:23:36;101467.00;;;2.61;100.00
4836;BME280;66719;51.226;6.902;2023-01-27T00:26:22;101470.50;;;2.64;100.00
4836;BME280;66719;51.226;6.902;2023-01-27T00:28:48;101464.50;;;2.65;100.00
4836;BME280;66719;51.226;6.902;2023-01-27T00:31:16;101473.25;;;2.70;100.00
4836;BME280;66719;51.226;6.902;2023-01-27T00:34:02;101476.75;;;2.72;100.00
4836;BME280;66719;51.226;6.902;2023-01-27T00:36:36;101475.03;;;2.73;100.00
4836;BME280;66719;51.226;6.902;2023-01-27T00:39:04;101477.63;;;2.73;100.00
4836;BME280;66719;51.226;6.902;2023-01-27T00:41:31;101475.78;;;2.69;100.00
4836;BME280;66719;51.226;6.902;2023-01-27T00:43:59;101479.38;;;2.74;100.00
4836;BME280;66719;51.226;6.902;2023-01-27T00:46:26;101486.28;;;2.75;100.00
4836;BME280;66719;51.226;6.902;2023-01-27T00:48:54;101487.16;;;2.75;100.00
4836;BME280;66719;51.226;6.902;2023-01-27T00:51:20;101479.44;;;2.77;100.00
4836;BME280;66719;51.226;6.902;2023-01-27T00:53:47;101492.53;;;2.83;100.00
4836;BME280;66719;51.226;6.902;2023-01-27T00:56:14;101492.53;;;2.83;100.00
4836;BME280;66719;51.226;6.902;2023-01-27T00:58:41;101493.44;;;2.85;100.00
4836;BME280;66719;51.226;6.902;2023-01-27T01:01:10;101495.16;;;2.84;100.00
4836;BME280;66719;51.226;6.902;2023-01-27T01:03:37;101496.88;;;2.84;100.00
4836;BME280;66719;51.226;6.902;2023-01-27T01:06:06;101500.28;;;2.83;100.00
4836;BME280;66719;51.226;6.902;2023-01-27T01:08:34;101500.28;;;2.83;100.00
4836;BME280;66719;51.226;6.902;2023-01-27T01:11:01;101500.28;;;2.83;100.00
4836;BME280;66719;51.226;6.902;2023-01-27T01:13:28;101504.56;;;2.81;100.00
4836;BME280;66719;51.226;6.902;2023-01-27T01:15:55;101499.34;;;2.79;100.00
4836;BME280;66719;51.226;6.902;2023-01-27T01:18:23;101500.22;;;2.80;100.00
4836;BME280;66719;51.226;6.902;2023-01-27T01:20:49;101499.41;;;2.82;100.00
4836;BME280;66719;51.226;6.902;2023-01-27T01:23:16;101502.88;;;2.83;100.00
4836;BME280;66719;51.226;6.902;2023-01-27T01:25:51;101497.66;;;2.81;100.00
4836;BME280;66719;51.226;6.902;2023-01-27T01:28:19;101496.88;;;2.84;100.00
4836;BME280;66719;51.226;6.902;2023-01-27T01:30:45;101500.31;;;2.84;100.00
4836;BME280;66719;51.226;6.902;2023-01-27T01:33:12;101495.13;;;2.83;100.00
4836;BME280;66719;51.226;6.902;2023-01-27T01:35:39;101494.28;;;2.84;100.00
4836;BME280;66719;51.226;6.902;2023-01-27T01:38:06;101499.47;;;2.86;100.00
4836;BME280;66719;51.226;6.902;2023-01-27T01:40:32;101506.38;;;2.85;100.00
4836;BME280;66719;51.226;6.902;2023-01-27T01:43:05;101505.53;;;2.86;100.00
4836;BME280;66719;51.226;6.902;2023-01-27T01:48:14;101504.72;;;2.87;100.00
4836;BME280;66719;51.226;6.902;2023-01-27T01:50:46;101511.56;;;2.87;100.00
4836;BME280;66719;51.226;6.902;2023-01-27T01:53:13;101504.59;;;2.82;100.00
4836;BME280;66719;51.226;6.902;2023-01-27T01:55:40;101501.97;;;2.81;100.00
4836;BME280;66719;51.226;6.902;2023-01-27T01:58:09;101507.22;;;2.84;100.00
4836;BME280;66719;51.226;6.902;2023-01-27T02:00:37;101506.38;;;2.85;100.00
4836;BME280;66719;51.226;6.902;2023-01-27T02:03:03;101513.25;;;2.84;100.00
4836;BME280;66719;51.226;6.902;2023-01-27T02:05:34;101510.69;;;2.86;100.00
4836;BME280;66719;51.226;6.902;2023-01-27T02:08:19;101518.63;;;2.92;100.00
4836;BME280;66719;51.226;6.902;2023-01-27T02:10:46;101517.72;;;2.90;100.00
4836;BME280;66719;51.226;6.902;2023-01-27T02:13:13;101524.63;;;2.91;100.00
4836;BME280;66719;51.226;6.902;2023-01-27T02:15:39;101528.06;;;2.90;100.00
4836;BME280;66719;51.226;6.902;2023-01-27T02:18:06;101521.13;;;2.89;100.00
4836;BME280;66719;51.226;6.902;2023-01-27T02:20:44;101527.16;;;2.88;100.00
4836;BME280;66719;51.226;6.902;2023-01-27T02:23:18;101526.22;;;2.86;100.00
4836;BME280;66719;51.226;6.902;2023-01-27T02:25:57;101521.00;;;2.84;100.00
4836;BME280;66719;51.226;6.902;2023-01-27T02:28:27;101527.88;;;2.84;100.00
4836;BME280;66719;51.226;6.902;2023-01-27T02:30:55;101534.75;;;2.82;100.00
4836;BME280;66719;51.226;6.902;2023-01-27T02:33:22;101542.44;;;2.79;100.00
4836;BME280;66719;51.226;6.902;2023-01-27T02:38:17;101542.28;;;2.74;100.00
4836;BME280;66719;51.226;6.902;2023-01-27T02:40:47;101546.56;;;2.72;100.00
4836;BME280;66719;51.226;6.902;2023-01-27T02:43:15;101537.91;;;2.72;100.00
4836;BME280;66719;51.226;6.902;2023-01-27T02:45:44;101533.59;;;2.71;100.00
4836;BME280;66719;51.226;6.902;2023-01-27T02:48:10;101544.00;;;2.74;100.00
4836;BME280;66719;51.226;6.902;2023-01-27T02:50:37;101551.69;;;2.71;100.00
4836;BME280;66719;51.226;6.902;2023-01-27T02:53:03;101547.28;;;2.68;100.00
4836;BME280;66719;51.226;6.902;2023-01-27T02:55:30;101543.88;;;2.69;100.00
4836;BME280;66719;51.226;6.902;2023-01-27T02:57:57;101543.88;;;2.69;100.00
4836;BME280;66719;51.226;6.902;2023-01-27T03:00:23;101540.34;;;2.66;100.00
4836;BME280;66719;51.226;6.902;2023-01-27T03:02:50;101548.09;;;2.66;100.00
4836;BME280;66719;51.226;6.902;2023-01-27T03:05:16;101543.75;;;2.65;100.00
4836;BME280;66719;51.226;6.902;2023-01-27T03:07:43;101550.59;;;2.63;100.00
4836;BME280;66719;51.226;6.902;2023-01-27T03:10:09;101551.38;;;2.60;100.00
4836;BME280;66719;51.226;6.902;2023-01-27T03:12:36;101546.28;;;2.62;100.00
4836;BME280;66719;51.226;6.902;2023-01-27T03:15:03;101552.22;;;2.59;100.00
4836;BME280;66719;51.226;6.902;2023-01-27T03:17:48;101555.66;;;2.60;100.00
4836;BME280;66719;51.226;6.902;2023-01-27T03:20:32;101547.00;;;2.58;100.00
4836;BME280;66719;51.226;6.902;2023-01-27T03:22:59;101535.75;;;2.55;100.00
4836;BME280;66719;51.226;6.902;2023-01-27T03:25:25;101540.88;;;2.54;100.00
4836;BME280;66719;51.226;6.902;2023-01-27T03:27:52;101533.09;;;2.52;100.00
4836;BME280;66719;51.226;6.902;2023-01-27T03:30:18;101548.47;;;2.48;100.00
4836;BME280;66719;51.226;6.902;2023-01-27T03:32:45;101547.59;;;2.47;100.00
4836;BME280;66719;51.226;6.902;2023-01-27T03:35:16;101546.72;;;2.47;100.00
4836;BME280;66719;51.226;6.902;2023-01-27T03:37:42;101544.97;;;2.46;100.00
4836;BME280;66719;51.226;6.902;2023-01-27T03:40:28;101549.25;;;2.45;100.00
4836;BME280;66719;51.226;6.902;2023-01-27T03:43:13;101541.47;;;2.44;100.00
4836;BME280;66719;51.226;6.902;2023-01-27T03:45:58;101553.59;;;2.46;100.00
4836;BME280;66719;51.226;6.902;2023-01-27T03:48:53;101555.34;;;2.47;100.00
4836;BME280;66719;51.226;6.902;2023-01-27T03:51:23;101550.22;;;2.49;100.00
4836;BME280;66719;51.226;6.902;2023-01-27T03:53:49;101552.75;;;2.47;100.00
4836;BME280;66719;51.226;6.902;2023-01-27T03:56:18;101544.88;;;2.43;100.00
4836;BME280;66719;51.226;6.902;2023-01-27T03:58:47;101544.81;;;2.41;100.00
4836;BME280;66719;51.226;6.902;2023-01-27T04:01:19;101551.72;;;2.41;100.00
4836;BME280;66719;51.226;6.902;2023-01-27T04:03:46;101552.56;;;2.41;100.00
4836;BME280;66719;51.226;6.902;2023-01-27T04:06:34;101550.03;;;2.43;100.00
4836;BME280;66719;51.226;6.902;2023-01-27T04:09:31;101557.84;;;2.44;100.00
4836;BME280;66719;51.226;6.902;2023-01-27T04:12:02;101555.38;;;2.49;100.00
4836;BME280;66719;51.226;6.902;2023-01-27T04:14:37;101557.22;;;2.53;100.00
4836;BME280;66719;51.226;6.902;2023-01-27T04:17:06;101556.41;;;2.54;100.00
4836;BME280;66719;51.226;6.902;2023-01-27T04:19:36;101559.84;;;2.54;100.00
4836;BME280;66719;51.226;6.902;2023-01-27T04:22:03;101557.28;;;2.54;100.00
4836;BME280;66719;51.226;6.902;2023-01-27T04:24:31;101563.34;;;2.57;100.00
4836;BME280;66719;51.226;6.902;2023-01-27T04:27:02;101565.13;;;2.59;100.00
4836;BME280;66719;51.226;6.902;2023-01-27T04:29:34;101564.22;;;2.57;100.00
4836;BME280;66719;51.226;6.902;2023-01-27T04:32:02;101564.22;;;2.57;100.00
4836;BME280;66719;51.226;6.902;2023-01-27T04:34:29;101562.44;;;2.54;100.00
4836;BME280;66719;51.226;6.902;2023-01-27T04:36:56;101556.41;;;2.54;100.00
4836;BME280;66719;51.226;6.902;2023-01-27T04:39:23;101566.69;;;2.52;100.00
4836;BME280;66719;51.226;6.902;2023-01-27T04:41:50;101562.28;;;2.50;100.00
4836;BME280;66719;51.226;6.902;2023-01-27T04:44:17;101567.44;;;2.48;100.00
4836;BME280;66719;51.226;6.902;2023-01-27T04:46:47;101570.03;;;2.50;100.00
4836;BME280;66719;51.226;6.902;2023-01-27T04:49:14;101569.22;;;2.51;100.00
4836;BME280;66719;51.226;6.902;2023-01-27T04:51:41;101569.28;;;2.52;100.00
4836;BME280;66719;51.226;6.902;2023-01-27T04:54:07;101574.44;;;2.52;100.00
4836;BME280;66719;51.226;6.902;2023-01-27T04:56:40;101575.31;;;2.53;100.00
4836;BME280;66719;51.226;6.902;2023-01-27T04:59:10;101574.50;;;2.54;100.00
4836;BME280;66719;51.226;6.902;2023-01-27T05:01:37;101576.19;;;2.53;100.00
4836;BME280;66719;51.226;6.902;2023-01-27T05:04:04;101577.94;;;2.54;100.00
4836;BME280;66719;51.226;6.902;2023-01-27T05:06:30;101570.19;;;2.54;100.00
4836;BME280;66719;51.226;6.902;2023-01-27T05:08:57;101580.56;;;2.56;100.00
4836;BME280;66719;51.226;6.902;2023-01-27T05:11:24;101582.34;;;2.59;100.00
4836;BME280;66719;51.226;6.902;2023-01-27T05:13:50;101586.66;;;2.58;100.00
4836;BME280;66719;51.226;6.902;2023-01-27T05:16:20;101585.88;;;2.61;100.00
4836;BME280;66719;51.226;6.902;2023-01-27T05:18:50;101591.03;;;2.61;100.00
4836;BME280;66719;51.226;6.902;2023-01-27T05:21:22;101590.13;;;2.60;100.00
4836;BME280;66719;51.226;6.902;2023-01-27T05:23:49;101596.22;;;2.61;100.00
4836;BME280;66719;51.226;6.902;2023-01-27T05:26:21;101598.84;;;2.62;100.00
4836;BME280;66719;51.226;6.902;2023-01-27T05:28:49;101591.03;;;2.61;100.00
4836;BME280;66719;51.226;6.902;2023-01-27T05:31:19;101598.00;;;2.63;100.00
4836;BME280;66719;51.226;6.902;2023-01-27T05:33:49;101593.72;;;2.64;100.00
4836;BME280;66719;51.226;6.902;2023-01-27T05:36:17;101596.28;;;2.64;100.00
4836;BME280;66719;51.226;6.902;2023-01-27T05:38:45;101601.47;;;2.64;100.00
4836;BME280;66719;51.226;6.902;2023-01-27T05:41:13;101602.38;;;2.66;100.00
4836;BME280;66719;51.226;6.902;2023-01-27T05:43:42;101604.94;;;2.66;100.00
4836;BME280;66719;51.226;6.902;2023-01-27T05:46:11;101604.16;;;2.68;100.00
4836;BME280;66719;51.226;6.902;2023-01-27T05:48:41;101614.56;;;2.70;100.00
4836;BME280;66719;51.226;6.902;2023-01-27T05:51:08;101611.16;;;2.71;100.00
4836;BME280;66719;51.226;6.902;2023-01-27T05:53:35;101607.69;;;2.70;100.00
4836;BME280;66719;51.226;6.902;2023-01-27T05:56:02;101609.44;;;2.71;100.00
4836;BME280;66719;51.226;6.902;2023-01-27T05:58:29;101611.16;;;2.71;100.00
4836;BME280;66719;51.226;6.902;2023-01-27T06:01:08;101608.59;;;2.72;100.00
4836;BME280;66719;51.226;6.902;2023-01-27T06:03:35;101606.88;;;2.73;100.00
4836;BME280;66719;51.226;6.902;2023-01-27T06:06:02;101617.25;;;2.74;100.00
4836;BME280;66719;51.226;6.902;2023-01-27T06:08:29;101612.13;;;2.76;100.00
4836;BME280;66719;51.226;6.902;2023-01-27T06:10:57;101618.22;;;2.78;100.00
4836;BME280;66719;51.226;6.902;2023-01-27T06:13:24;101614.81;;;2.79;100.00
4836;BME280;66719;51.226;6.902;2023-01-27T06:15:51;101614.84;;;2.80;100.00
4836;BME280;66719;51.226;6.902;2023-01-27T06:18:18;101614.84;;;2.80;100.00
4836;BME280;66719;51.226;6.902;2023-01-27T06:20:45;101612.22;;;2.79;100.00
4836;BME280;66719;51.226;6.902;2023-01-27T06:23:13;101613.97;;;2.80;100.00
4836;BME280;66719;51.226;6.902;2023-01-27T06:25:45;101616.56;;;2.80;100.00
4836;BME280;66719;51.226;6.902;2023-01-27T06:28:13;101616.59;;;2.81;100.00
4836;BME280;66719;51.226;6.902;2023-01-27T06:30:54;101622.66;;;2.82;100.00
4836;BME280;66719;51.226;6.902;2023-01-27T06:33:21;101626.16;;;2.84;100.00
4836;BME280;66719;51.226;6.902;2023-01-27T06:35:48;101630.59;;;2.88;100.00
4836;BME280;66719;51.226;6.902;2023-01-27T06:38:14;101630.59;;;2.88;100.00
4836;BME280;66719;51.226;6.902;2023-01-27T06:40:41;101638.34;;;2.88;100.00
4836;BME280;66719;51.226;6.902;2023-01-27T06:43:12;101631.41;;;2.87;100.00
4836;BME280;66719;51.226;6.902;2023-01-27T06:45:39;101640.06;;;2.88;100.00
4836;BME280;66719;51.226;6.902;2023-01-27T06:48:06;101641.75;;;2.87;100.00
4836;BME280;66719;51.226;6.902;2023-01-27T06:50:34;101646.94;;;2.87;100.00
4836;BME280;66719;51.226;6.902;2023-01-27T06:53:03;101653.84;;;2.88;100.00
4836;BME280;66719;51.226;6.902;2023-01-27T06:55:31;101647.88;;;2.91;100.00
4836;BME280;66719;51.226;6.902;2023-01-27T06:57:57;101649.56;;;2.89;100.00
4836;BME280;66719;51.226;6.902;2023-01-27T07:00:24;101649.56;;;2.89;100.00
4836;BME280;66719;51.226;6.902;2023-01-27T07:02:54;101647.84;;;2.89;100.00
4836;BME280;66719;51.226;6.902;2023-01-27T07:05:21;101653.91;;;2.90;100.00
4836;BME280;66719;51.226;6.902;2023-01-27T07:07:47;101651.41;;;2.94;100.00
4836;BME280;66719;51.226;6.902;2023-01-27T07:10:14;101660.91;;;2.95;100.00
4836;BME280;66719;51.226;6.902;2023-01-27T07:12:41;101655.81;;;2.97;100.00
4836;BME280;66719;51.226;6.902;2023-01-27T07:15:09;101657.63;;;3.01;100.00
4836;BME280;66719;51.226;6.902;2023-01-27T07:17:36;101664.50;;;2.99;100.00
4836;BME280;66719;51.226;6.902;2023-01-27T07:20:04;101657.59;;;2.99;100.00
4836;BME280;66719;51.226;6.902;2023-01-27T07:22:31;101665.38;;;2.99;100.00
4836;BME280;66719;51.226;6.902;2023-01-27T07:24:58;101666.25;;;3.00;100.00
4836;BME280;66719;51.226;6.902;2023-01-27T07:27:24;101658.50;;;3.01;100.00
4836;BME280;66719;51.226;6.902;2023-01-27T07:29:51;101673.16;;;3.01;100.00
4836;BME280;66719;51.226;6.902;2023-01-27T07:32:18;101662.00;;;3.03;100.00
4836;BME280;66719;51.226;6.902;2023-01-27T07:34:44;101674.91;;;3.02;100.00
4836;BME280;66719;51.226;6.902;2023-01-27T07:37:11;101672.31;;;3.02;100.00
4836;BME280;66719;51.226;6.902;2023-01-27T07:39:38;101668.84;;;3.01;100.00
4836;BME280;66719;51.226;6.902;2023-01-27T07:42:05;101673.19;;;3.02;100.00
4836;BME280;66719;51.226;6.902;2023-01-27T07:44:32;101664.59;;;3.03;100.00
4836;BME280;66719;51.226;6.902;2023-01-27T07:46:58;101673.19;;;3.02;100.00
4836;BME280;66719;51.226;6.902;2023-01-27T07:49:25;101663.72;;;3.03;100.00
4836;BME280;66719;51.226;6.902;2023-01-27T07:51:53;101672.31;;;3.02;100.00
4836;BME280;66719;51.226;6.902;2023-01-27T07:54:19;101673.19;;;3.02;100.00
4836;BME280;66719;51.226;6.902;2023-01-27T07:56:46;101683.53;;;3.02;100.00
4836;BME280;66719;51.226;6.902;2023-01-27T07:59:12;101674.91;;;3.02;100.00
4836;BME280;66719;51.226;6.902;2023-01-27T08:01:39;101685.25;;;3.02;100.00
4836;BME280;66719;51.226;6.902;2023-01-27T08:04:07;101695.75;;;3.06;100.00
4836;BME280;66719;51.226;6.902;2023-01-27T08:06:33;101686.28;;;3.07;100.00
4836;BME280;66719;51.226;6.902;2023-01-27T08:09:00;101682.84;;;3.08;100.00
4836;BME280;66719;51.226;6.902;2023-01-27T08:11:27;101687.19;;;3.09;100.00
4836;BME280;66719;51.226;6.902;2023-01-27T08:13:53;101686.34;;;3.10;100.00
4836;BME280;66719;51.226;6.902;2023-01-27T08:16:20;101703.66;;;3.12;100.00
4836;BME280;66719;51.226;6.902;2023-01-27T08:18:46;101701.97;;;3.13;100.00
4836;BME280;66719;51.226;6.902;2023-01-27T08:21:13;101696.00;;;3.16;100.00
4836;BME280;66719;51.226;6.902;2023-01-27T08:23:39;101693.44;;;3.17;100.00
4836;BME280;66719;51.226;6.902;2023-01-27T08:26:06;101695.22;;;3.20;100.00
4836;BME280;66719;51.226;6.902;2023-01-27T08:28:36;101695.22;;;3.20;100.00
4836;BME280;66719;51.226;6.902;2023-01-27T08:33:30;101685.88;;;3.25;100.00
4836;BME280;66719;51.226;6.902;2023-01-27T08:36:04;101696.28;;;3.26;100.00
4836;BME280;66719;51.226;6.902;2023-01-27T08:38:31;101695.44;;;3.27;100.00
4836;BME280;66719;51.226;6.902;2023-01-27T08:41:12;101688.59;;;3.29;100.00
4836;BME280;66719;51.226;6.902;2023-01-27T08:43:39;101693.88;;;3.32;100.00
4836;BME280;66719;51.226;6.902;2023-01-27T08:46:07;101696.53;;;3.35;100.00
4836;BME280;66719;51.226;6.902;2023-01-27T08:48:34;101701.72;;;3.37;100.00
4836;BME280;66719;51.226;6.902;2023-01-27T08:51:02;101701.72;;;3.37;100.00
4836;BME280;66719;51.226;6.902;2023-01-27T08:53:29;101708.75;;;3.41;100.00
4836;BME280;66719;51.226;6.902;2023-01-27T08:56:00;101701.00;;;3.41;100.00
4836;BME280;66719;51.226;6.902;2023-01-27T08:58:27;101701.88;;;3.42;100.00
4836;BME280;66719;51.226;6.902;2023-01-27T09:00:54;101703.66;;;3.44;100.00
4836;BME280;66719;51.226;6.902;2023-01-27T09:03:20;101705.38;;;3.44;100.00
4836;BME280;66719;51.226;6.902;2023-01-27T09:05:47;101712.31;;;3.46;100.00
4836;BME280;66719;51.226;6.902;2023-01-27T09:08:13;101712.44;;;3.49;100.00
4836;BME280;66719;51.226;6.902;2023-01-27T09:10:41;101712.47;;;3.51;100.00
4836;BME280;66719;51.226;6.902;2023-01-27T09:13:08;101715.06;;;3.51;100.00
4836;BME280;66719;51.226;6.902;2023-01-27T09:15:35;101714.22;;;3.52;100.00
4836;BME280;66719;51.226;6.902;2023-01-27T09:18:03;101720.25;;;3.52;100.00
4836;BME280;66719;51.226;6.902;2023-01-27T09:20:32;101717.84;;;3.58;100.00
4836;BME280;66719;51.226;6.902;2023-01-27T09:23:01;101735.13;;;3.59;100.00
4836;BME280;66719;51.226;6.902;2023-01-27T09:25:27;101732.56;;;3.61;100.00
4836;BME280;66719;51.226;6.902;2023-01-27T09:27:55;101735.19;;;3.62;100.00
4836;BME280;66719;51.226;6.902;2023-01-27T09:30:22;101739.53;;;3.63;100.00
4836;BME280;66719;51.226;6.902;2023-01-27T09:32:49;101733.50;;;3.64;100.00
4836;BME280;66719;51.226;6.902;2023-01-27T09:35:16;101740.47;;;3.65;100.00
4836;BME280;66719;51.226;6.902;2023-01-27T09:37:50;101736.22;;;3.67;100.00
4836;BME280;66719;51.226;6.902;2023-01-27T09:40:32;101739.84;;;3.74;100.00
4836;BME280;66719;51.226;6.902;2023-01-27T09:47:06;101740.84;;;3.81;100.00
4836;BME280;66719;51.226;6.902;2023-01-27T09:49:17;101740.00;;;3.82;100.00
4836;BME280;66719;51.226;6.902;2023-01-27T09:52:13;101746.13;;;3.84;100.00
4836;BME280;66719;51.226;6.902;2023-01-27T10:00:28;101746.41;;;3.96;100.00
4836;BME280;66719;51.226;6.902;2023-01-27T10:27:45;101739.25;;;4.20;100.00
4836;BME280;66719;51.226;6.902;2023-01-27T10:30:17;101739.28;;;4.22;100.00
4836;BME280;66719;51.226;6.902;2023-01-27T10:32:51;101734.22;;;4.27;100.00
4836;BME280;66719;51.226;6.902;2023-01-27T10:35:29;101743.84;;;4.32;100.00
4836;BME280;66719;51.226;6.902;2023-01-27T10:40:56;101741.41;;;4.38;100.00
4836;BME280;66719;51.226;6.902;2023-01-27T10:43:33;101746.75;;;4.44;100.00
4836;BME280;66719;51.226;6.902;2023-01-27T10:46:10;101734.75;;;4.49;100.00
4836;BME280;66719;51.226;6.902;2023-01-27T10:49:02;101729.50;;;4.46;100.00
4836;BME280;66719;51.226;6.902;2023-01-27T10:51:41;101733.81;;;4.46;100.00
4836;BME280;66719;51.226;6.902;2023-01-27T10:54:27;101731.25;;;4.47;100.00
4836;BME280;66719;51.226;6.902;2023-01-27T10:57:00;101742.63;;;4.54;100.00
4836;BME280;66719;51.226;6.902;2023-01-27T11:00:03;101735.75;;;4.56;100.00
4836;BME280;66719;51.226;6.902;2023-01-27T11:05:59;101716.75;;;4.57;100.00
4836;BME280;66719;51.226;6.902;2023-01-27T11:08:33;101715.84;;;4.53;100.00
4836;BME280;66719;51.226;6.902;2023-01-27T11:11:04;101718.41;;;4.52;100.00
4836;BME280;66719;51.226;6.902;2023-01-27T11:13:56;101717.63;;;4.58;100.00
4836;BME280;66719;51.226;6.902;2023-01-27T11:16:32;101712.53;;;4.61;100.00
4836;BME280;66719;51.226;6.902;2023-01-27T11:19:09;101704.63;;;4.56;100.00
4836;BME280;66719;51.226;6.902;2023-01-27T11:21:40;101709.78;;;4.53;100.00
4836;BME280;66719;51.226;6.902;2023-01-27T11:24:19;101708.06;;;4.53;100.00
4836;BME280;66719;51.226;6.902;2023-01-27T11:27:02;101694.28;;;4.56;100.00
4836;BME280;66719;51.226;6.902;2023-01-27T11:29:39;101706.50;;;4.62;100.00
4836;BME280;66719;51.226;6.902;2023-01-27T11:35:15;101715.13;;;4.61;100.00
4836;BME280;66719;51.226;6.902;2023-01-27T11:37:43;101702.22;;;4.64;100.00
4836;BME280;66719;51.226;6.902;2023-01-27T11:40:21;101709.09;;;4.62;100.00
4836;BME280;66719;51.226;6.902;2023-01-27T11:42:50;101718.59;;;4.61;100.00
4836;BME280;66719;51.226;6.902;2023-01-27T11:45:19;101713.47;;;4.64;100.00
4836;BME280;66719;51.226;6.902;2023-01-27T11:47:50;101710.94;;;4.69;100.00
4836;BME280;66719;51.226;6.902;2023-01-27T11:50:19;101710.91;;;4.66;100.00
4836;BME280;66719;51.226;6.902;2023-01-27T11:52:51;101716.06;;;4.64;100.00
4836;BME280;66719;51.226;6.902;2023-01-27T11:55:26;101711.78;;;4.66;100.00
4836;BME280;66719;51.226;6.902;2023-01-27T11:58:06;101713.47;;;4.64;100.00
4836;BME280;66719;51.226;6.902;2023-01-27T12:00:38;101716.09;;;4.66;100.00
4836;BME280;66719;51.226;6.902;2023-01-27T12:05:45;101724.72;;;4.65;100.00
4836;BME280;66719;51.226;6.902;2023-01-27T12:14:02;101700.63;;;4.70;100.00
4836;BME280;66719;51.226;6.902;2023-01-27T12:19:18;101692.09;;;4.76;100.00
4836;BME280;66719;51.226;6.902;2023-01-27T12:21:49;101692.97;;;4.76;100.00
4836;BME280;66719;51.226;6.902;2023-01-27T12:24:27;101690.28;;;4.72;100.00
4836;BME280;66719;51.226;6.902;2023-01-27T12:26:56;101689.34;;;4.68;100.00
4836;BME280;66719;51.226;6.902;2023-01-27T12:29:39;101691.06;;;4.68;100.00
4836;BME280;66719;51.226;6.902;2023-01-27T12:32:21;101689.31;;;4.67;100.00
4836;BME280;66719;51.226;6.902;2023-01-27T12:34:51;101689.31;;;4.67;100.00
4836;BME280;66719;51.226;6.902;2023-01-27T12:37:31;101694.47;;;4.65;100.00
4836;BME280;66719;51.226;6.902;2023-01-27T12:40:00;101695.34;;;4.66;100.00
4836;BME280;66719;51.226;6.902;2023-01-27T12:42:40;101688.44;;;4.66;100.00
4836;BME280;66719;51.226;6.902;2023-01-27T12:45:16;101687.53;;;4.64;100.00
4836;BME280;66719;51.226;6.902;2023-01-27T12:50:40;101683.06;;;4.57;100.00
4836;BME280;66719;51.226;6.902;2023-01-27T12:55:49;101694.28;;;4.56;100.00
4836;BME280;66719;51.226;6.902;2023-01-27T13:01:06;101696.81;;;4.53;100.00
4836;BME280;66719;51.226;6.902;2023-01-27T13:03:43;101695.88;;;4.51;100.00
4836;BME280;66719;51.226;6.902;2023-01-27T13:06:14;101695.06;;;4.52;100.00
4836;BME280;66719;51.226;6.902;2023-01-27T13:08:42;101695.97;;;4.54;100.00
4836;BME280;66719;51.226;6.902;2023-01-27T13:11:10;101690.88;;;4.60;100.00
4836;BME280;66719;51.226;6.902;2023-01-27T13:13:46;101691.69;;;4.58;100.00
4836;BME280;66719;51.226;6.902;2023-01-27T13:16:22;101694.28;;;4.56;100.00
4836;BME280;66719;51.226;6.902;2023-01-27T13:18:56;101701.19;;;4.57;100.00
4836;BME280;66719;51.226;6.902;2023-01-27T13:21:35;101713.31;;;4.58;100.00
4836;BME280;66719;51.226;6.902;2023-01-27T13:24:09;101713.28;;;4.57;100.00
4836;BME280;66719;51.226;6.902;2023-01-27T13:26:39;101708.94;;;4.54;100.00
4836;BME280;66719;51.226;6.902;2023-01-27T13:34:25;101721.88;;;4.54;100.00
4836;BME280;66719;51.226;6.902;2023-01-27T13:36:57;101714.97;;;4.53;100.00
4836;BME280;66719;51.226;6.902;2023-01-27T13:42:42;101724.47;;;4.52;100.00
4836;BME280;66719;51.226;6.902;2023-01-27T13:45:11;101714.97;;;4.53;100.00
4836;BME280;66719;51.226;6.902;2023-01-27T13:50:26;101736.66;;;4.58;100.00
4836;BME280;66719;51.226;6.902;2023-01-27T13:52:56;101728.97;;;4.61;100.00
4836;BME280;66719;51.226;6.902;2023-01-27T14:01:24;101734.34;;;4.70;100.00
4836;BME280;66719;51.226;6.902;2023-01-27T14:09:59;101737.63;;;4.62;100.00
4836;BME280;66719;51.226;6.902;2023-01-27T14:13:11;101734.94;;;4.59;100.00
4836;BME280;66719;51.226;6.902;2023-01-27T14:15:47;101736.63;;;4.57;100.00
4836;BME280;66719;51.226;6.902;2023-01-27T14:21:01;101740.06;;;4.56;100.00
4836;BME280;66719;51.226;6.902;2023-01-27T14:24:00;101735.69;;;4.53;100.00
4836;BME280;66719;51.226;6.902;2023-01-27T14:26:45;101736.53;;;4.52;100.00
4836;BME280;66719;51.226;6.902;2023-01-27T14:39:53;101749.34;;;4.44;100.00
4836;BME280;66719;51.226;6.902;2023-01-27T14:47:52;101745.00;;;4.43;100.00
4836;BME280;66719;51.226;6.902;2023-01-27T14:50:35;101746.66;;;4.41;100.00
4836;BME280;66719;51.226;6.902;2023-01-27T14:58:57;101756.03;;;4.35;100.00
4836;BME280;66719;51.226;6.902;2023-01-27T15:01:51;101759.41;;;4.32;100.00
4836;BME280;66719;51.226;6.902;2023-01-27T15:04:29;101757.63;;;4.30;100.00
4836;BME280;66719;51.226;6.902;2023-01-27T15:07:24;101756.75;;;4.29;100.00
4836;BME280;66719;51.226;6.902;2023-01-27T15:10:16;101758.50;;;4.30;100.00
4836;BME280;66719;51.226;6.902;2023-01-27T15:18:39;101773.91;;;4.25;100.00
4836;BME280;66719;51.226;6.902;2023-01-27T15:21:23;101774.75;;;4.24;100.00
4836;BME280;66719;51.226;6.902;2023-01-27T15:24:15;101777.31;;;4.23;100.00